Time;durP1;ratioP1;P1;durP2;ratioP2;P2;SDS_P1;SDS_P2;PMS_P1;PMS_P2;Temp;Humidity;BMP_temperature;BMP_pressure;BME280_temperature;BME280_humidity;BME280_pressure;Samples;Min_cycle;Max_cycle;Signal;HPM_P1;HPM_P2
2023/12/22 04:54:17;;;;;;;;;;;;;;;;;;6246187;23;19925;-71
2023/12/22 04:56:44;;;;;;;;;;;;;;;;;;6246547;23;19919;-72
2023/12/22 04:59:11;;;;;;;;;;;;;;;;;;6248507;23;19926;-72
2023/12/22 05:01:38;;;;;;;;;;;;;;;;;;6248468;23;19927;-72
2023/12/22 05:04:05;;;;;;;;;;;;;;;;;;6248562;23;19927;-71
2023/12/22 05:06:32;;;;;;;;;;;;;;;;;;6247192;22;19934;-73
2023/12/22 05:08:59;;;;;;;;;;;;;;;;;;6248524;23;19920;-74
2023/12/22 05:11:26;;;;;;;;;;;;;;;;;;6248479;23;19926;-72
2023/12/22 05:13:53;;;;;;;;;;;;;;;;;;6248247;23;19919;-73
2023/12/22 05:16:20;;;;;;;;;;;;;;;;;;6248557;23;19927;-73
2023/12/22 05:18:47;;;;;;;;;;;;;;;;;;6248354;23;19924;-73
2023/12/22 05:21:14;;;;;;;;;;;;;;;;;;6248434;23;19927;-73
2023/12/22 05:23:41;;;;;;;;;;;;;;;;;;6248064;23;20405;-73
2023/12/22 05:26:08;;;;;;;;;;;;;;;;;;6248328;23;19923;-72
2023/12/22 05:28:35;;;;;;;;;;;;;;;;;;6248629;23;19927;-73
2023/12/22 05:31:02;;;;;;;;;;;;;;;;;;6247988;23;20274;-73
2023/12/22 05:33:29;;;;;;;;;;;;;;;;;;6248219;23;19926;-72
2023/12/22 05:35:56;;;;;;;;;;;;;;;;;;6248457;23;19954;-72
2023/12/22 05:38:23;;;;;;;;;;;;;;;;;;6248250;23;19924;-72
2023/12/22 05:40:50;;;;;;;;;;;;;;;;;;6249037;23;19942;-72
2023/12/22 05:43:17;;;;;;;;;;;;;;;;;;6247675;23;20355;-71
2023/12/22 05:45:43;;;;;;;;;;;;;;;;;;6247869;23;19920;-72
2023/12/22 05:48:10;;;;;;;;;;;;;;;;;;6248305;23;20014;-71
2023/12/22 05:50:37;;;;;;;;;;;;;;;;;;6247997;23;19919;-73
2023/12/22 05:53:04;;;;;;;;;;;;;;;;;;6248055;23;19920;-72
2023/12/22 05:55:31;;;;;;;;;;;;;;;;;;6247987;23;19924;-71
2023/12/22 05:57:58;;;;;;;;;;;;;;;;;;6248299;23;19920;-71
2023/12/22 06:00:26;;;;;;;;;;;;;;;;;;6249098;23;19919;-70
2023/12/22 06:02:52;;;;;;;;;;;;;;;;;;6247836;23;20258;-70
2023/12/22 06:05:19;;;;;;;;;;;;;;;;;;6247417;23;20298;-69
2023/12/22 06:07:45;;;;;;;;;;;;;;;;;;6247977;23;19942;-69
2023/12/22 06:10:12;;;;;;;;;;;;;;;;;;6247453;23;19923;-69
2023/12/22 06:12:39;;;;;;;;;;;;;;;;;;6247573;23;20370;-69
2023/12/22 06:15:06;;;;;;;;;;;;;;;;;;6247504;23;19920;-71
2023/12/22 06:17:33;;;;;;;;;;;;;;;;;;6247317;23;19920;-70
2023/12/22 06:20:00;;;;;;;;;;;;;;;;;;6247861;23;19941;-71
2023/12/22 06:22:27;;;;;;;;;;;;;;;;;;6247617;23;19919;-70
2023/12/22 06:24:54;;;;;;;;;;;;;;;;;;6247503;23;19919;-71
2023/12/22 06:27:21;;;;;;;;;;;;;;;;;;6248006;23;19927;-72
2023/12/22 06:29:47;;;;;;;;;;;;;;;;;;6247594;23;19924;-72
2023/12/22 06:32:15;;;;;;;;;;;;;;;;;;6247593;23;19927;-70
2023/12/22 06:34:42;;;;;;;;;;;;;;;;;;6247572;23;19990;-72
2023/12/22 06:37:10;;;;;;;;;;;;;;;;;;6247827;23;19919;-71
2023/12/22 06:39:37;;;;;;;;;;;;;;;;;;6247378;23;19920;-71
2023/12/22 06:42:06;;;;;;;;;;;;;;;;;;6247263;23;19926;-71
2023/12/22 06:44:33;;;;;;;;;;;;;;;;;;6247452;23;20003;-71
2023/12/22 06:47:00;;;;;;;;;;;;;;;;;;6247314;23;20258;-70
2023/12/22 06:49:27;;;;;;;;;;;;;;;;;;6247417;23;19919;-73
2023/12/22 06:51:54;;;;;;;;;;;;;;;;;;6247422;23;20339;-72
2023/12/22 06:54:21;;;;;;;;;;;;;;;;;;6249975;23;19920;-72
2023/12/22 06:56:47;;;;;;;;;;;;;;;;;;6250359;23;19920;-73
2023/12/22 06:59:14;;;;;;;;;;;;;;;;;;6247099;23;19919;-73
2023/12/22 07:01:41;;;;;;;;;;;;;;;;;;6247641;23;19919;-72
2023/12/22 07:04:08;;;;;;;;;;;;;;;;;;6247419;23;19920;-72
2023/12/22 08:32:26;;;;;;;;;;;;;;;;;;6232941;22;19920;-74
2023/12/22 08:34:53;;;;;;;;;;;;;;;;;;6253260;22;19919;-75
2023/12/22 08:37:20;;;;;;;;;;;;;;;;;;6254024;23;19920;-72
2023/12/22 08:39:47;;;;;;;;;;;;;;;;;;6253489;23;19919;-74
2023/12/22 08:42:13;;;;;;;;;;;;;;;;;;6251303;23;19927;-74
2023/12/22 08:44:40;;;;;;;;;;;;;;;;;;6250855;22;20247;-70
2023/12/22 08:47:07;;;;;;;;;;;;;;;;;;6248917;23;20347;-71
2023/12/22 08:49:34;;;;;;;;;;;;;;;;;;6249541;23;19920;-72
2023/12/22 08:52:03;;;;;;;;;;;;;;;;;;6250046;23;19919;-71
2023/12/22 08:54:30;;;;;;;;;;;;;;;;;;6248887;23;19919;-71
2023/12/22 08:56:57;;;;;;;;;;;;;;;;;;6248558;23;20331;-71
2023/12/22 08:59:24;;;;;;;;;;;;;;;;;;6248529;23;19926;-71
2023/12/22 09:01:51;;;;;;;;;;;;;;;;;;6248624;23;19920;-71
2023/12/22 09:04:18;;;;;;;;;;;;;;;;;;6248464;23;20343;-71
2023/12/22 09:06:45;;;;;;;;;;;;;;;;;;6248987;23;19927;-69
2023/12/22 09:09:11;;;;;;;;;;;;;;;;;;6248726;23;19947;-71
2023/12/22 09:11:38;;;;;;;;;;;;;;;;;;6248669;23;19919;-71
2023/12/22 09:14:05;;;;;;;;;;;;;;;;;;6248537;23;19926;-70
2023/12/22 09:16:32;;;;;;;;;;;;;;;;;;6248822;23;19927;-72
2023/12/22 09:18:59;;;;;;;;;;;;;;;;;;6248827;23;19926;-72
2023/12/22 09:21:27;;;;;;;;;;;;;;;;;;6248530;23;19951;-71
2023/12/22 09:23:54;;;;;;;;;;;;;;;;;;6248772;23;19919;-72
2023/12/22 09:26:21;;;;;;;;;;;;;;;;;;6248321;23;19923;-71
2023/12/22 09:28:48;;;;;;;;;;;;;;;;;;6249350;23;19919;-72
2023/12/22 09:31:15;;;;;;;;;;;;;;;;;;6248352;23;20343;-71
2023/12/22 09:33:41;;;;;;;;;;;;;;;;;;6248785;23;19920;-70
2023/12/22 09:36:08;;;;;;;;;;;;;;;;;;6248826;23;19927;-71
2023/12/22 09:38:36;;;;;;;;;;;;;;;;;;6248380;23;20331;-72
2023/12/22 09:41:02;;;;;;;;;;;;;;;;;;6248421;23;19919;-71
2023/12/22 09:43:29;;;;;;;;;;;;;;;;;;6247666;23;19926;-72
2023/12/22 09:45:56;;;;;;;;;;;;;;;;;;6247889;23;19920;-72
2023/12/22 09:48:27;;;;;;;;;;;;;;;;;;6248187;23;19927;-72
2023/12/22 09:50:54;;;;;;;;;;;;;;;;;;6248675;23;19927;-73
2023/12/22 09:53:20;;;;;;;;;;;;;;;;;;6248261;23;19919;-73
2023/12/22 09:55:47;;;;;;;;;;;;;;;;;;6248372;23;19931;-72
2023/12/22 09:58:14;;;;;;;;;;;;;;;;;;6248111;23;19920;-72
2023/12/22 10:00:41;;;;;;;;;;;;;;;;;;6248516;23;19919;-74
2023/12/22 10:03:08;;;;;;;;;;;;;;;;;;6248653;23;19926;-71
2023/12/22 10:05:35;;;;;;;;;;;;;;;;;;6248283;23;19919;-72
2023/12/22 10:08:02;;;;;;;;;;;;;;;;;;6249202;23;19924;-72
2023/12/22 10:10:30;;;;;;;;;;;;;;;;;;6248405;23;19926;-72
2023/12/22 10:12:56;;;;;;;;;;;;;;;;;;6248274;23;20343;-72
2023/12/22 10:15:24;;;;;;;;;;;;;;;;;;6248091;23;19926;-72
2023/12/22 10:17:51;;;;;;;;;;;;;;;;;;6248333;23;19920;-71
2023/12/22 10:20:18;;;;;;;;;;;;;;;;;;6247965;23;19970;-71
2023/12/22 10:22:46;;;;;;;;;;;;;;;;;;6247659;23;20263;-71
2023/12/22 10:25:13;;;;;;;;;;;;;;;;;;6247909;23;19920;-71
2023/12/22 10:27:40;;;;;;;;;;;;;;;;;;6247897;23;19920;-71
2023/12/22 10:30:06;;;;;;;;;;;;;;;;;;6248391;23;19920;-71
2023/12/22 10:32:33;;;;;;;;;;;;;;;;;;6248595;23;19920;-71
2023/12/22 10:35:00;;;;;;;;;;;;;;;;;;6247468;23;19927;-71
2023/12/22 10:37:27;;;;;;;;;;;;;;;;;;6247635;23;19989;-70
2023/12/22 10:39:54;;;;;;;;;;;;;;;;;;6248344;23;19983;-73
2023/12/22 10:42:21;;;;;;;;;;;;;;;;;;6247878;23;19920;-73
2023/12/22 10:44:49;;;;;;;;;;;;;;;;;;6248017;23;19931;-73
2023/12/22 10:47:16;;;;;;;;;;;;;;;;;;6248424;23;20343;-72
2023/12/22 10:49:43;;;;;;;;;;;;;;;;;;6248218;23;19927;-72
2023/12/22 10:52:10;;;;;;;;;;;;;;;;;;6247687;23;19919;-72
2023/12/22 10:54:36;;;;;;;;;;;;;;;;;;6247393;23;19930;-73
2023/12/22 10:57:04;;;;;;;;;;;;;;;;;;6247794;23;19920;-73
2023/12/22 10:59:31;;;;;;;;;;;;;;;;;;6247554;23;19927;-73
2023/12/22 11:01:58;;;;;;;;;;;;;;;;;;6248094;23;19946;-73
2023/12/22 11:04:25;;;;;;;;;;;;;;;;;;6247832;23;19927;-73
2023/12/22 11:06:52;;;;;;;;;;;;;;;;;;6247414;23;19919;-73
2023/12/22 11:09:19;;;;;;;;;;;;;;;;;;6248321;23;19923;-73
2023/12/22 11:11:46;;;;;;;;;;;;;;;;;;6248241;23;19920;-73
2023/12/22 11:14:13;;;;;;;;;;;;;;;;;;6247402;23;19927;-73
2023/12/22 11:16:40;;;;;;;;;;;;;;;;;;6247468;23;19926;-74
2023/12/22 11:19:07;;;;;;;;;;;;;;;;;;6247302;23;19920;-74
2023/12/22 11:21:33;;;;;;;;;;;;;;;;;;6248122;23;19926;-72
2023/12/22 11:24:00;;;;;;;;;;;;;;;;;;6247571;23;19923;-70
2023/12/22 11:26:27;;;;;;;;;;;;;;;;;;6247150;23;19924;-70
2023/12/22 11:28:54;;;;;;;;;;;;;;;;;;6247122;23;19926;-71
2023/12/22 11:31:21;;;;;;;;;;;;;;;;;;6248036;23;20331;-67
2023/12/22 11:33:48;;;;;;;;;;;;;;;;;;6247027;23;20006;-70
2023/12/22 11:36:15;;;;;;;;;;;;;;;;;;6246980;23;19920;-68
2023/12/22 11:38:42;;;;;;;;;;;;;;;;;;6246606;23;20243;-68
2023/12/22 11:41:09;;;;;;;;;;;;;;;;;;6246684;23;20351;-69
2023/12/22 11:43:36;;;;;;;;;;;;;;;;;;6247151;23;19926;-67
2023/12/22 11:46:03;;;;;;;;;;;;;;;;;;6246829;23;20304;-70
2023/12/22 11:48:29;;;;;;;;;;;;;;;;;;6247191;23;19919;-68
2023/12/22 11:50:56;;;;;;;;;;;;;;;;;;6246985;23;19926;-68
2023/12/22 11:53:23;;;;;;;;;;;;;;;;;;6247081;23;19919;-67
2023/12/22 11:55:50;;;;;;;;;;;;;;;;;;6247197;23;19927;-69
2023/12/22 11:58:16;;;;;;;;;;;;;;;;;;6247515;23;19926;-68
2023/12/22 12:00:43;;;;;;;;;;;;;;;;;;6247543;23;19923;-68
2023/12/22 12:03:10;;;;;;;;;;;;;;;;;;6247500;23;19919;-68
2023/12/22 12:05:37;;;;;;;;;;;;;;;;;;6247051;23;19927;-68
2023/12/22 12:08:04;;;;;;;;;;;;;;;;;;6246791;23;19923;-68
2023/12/22 12:10:31;;;;;;;;;;;;;;;;;;6247063;23;19920;-69
2023/12/22 12:13:06;;;;;;;;;;;5.30;99.90;;;;;;6247103;23;20027;-72
2023/12/22 12:15:34;;;;;;;;;;;6.10;99.90;;;;;;6246970;23;19919;-72
2023/12/22 12:18:00;;;;;;;;;;;6.00;99.90;;;;;;6247677;23;19920;-72
2023/12/22 12:20:28;;;;;;;;;;;6.10;99.90;;;;;;6247845;23;19920;-71
2023/12/22 12:22:54;;;;;;;;;;;6.10;99.90;;;;;;6249271;23;20395;-71
2023/12/22 12:25:24;;;;;;;;;;;6.10;99.90;;;;;;6249109;23;20351;-72
2023/12/22 12:27:51;;;;;;;;;;;6.10;99.90;;;;;;6247764;23;19950;-71
2023/12/22 12:30:19;;;;;;;;;;;6.10;99.90;;;;;;6247429;23;20046;-71
2023/12/22 12:32:46;;;;;;;;;;;6.10;99.90;;;;;;6247128;23;19919;-71
2023/12/22 12:35:13;;;;;;;;;;;6.10;99.90;;;;;;6247315;23;19943;-70
2023/12/22 12:37:41;;;;;;;;;;;6.00;99.90;;;;;;6247049;23;19919;-70
2023/12/22 12:40:08;;;;;;;;;;;6.00;99.90;;;;;;6247367;23;19923;-72
2023/12/22 12:42:37;;;;;;;;;;;6.10;99.90;;;;;;6248340;23;19966;-73
2023/12/22 12:45:05;;;;;;;;;;;6.10;99.90;;;;;;6247602;23;19966;-72
2023/12/22 12:47:33;;;;;;;;;;;6.10;99.90;;;;;;6247987;23;19919;-72
2023/12/22 12:50:02;;;;;;;;;;;6.10;99.90;;;;;;6248650;23;19965;-70
2023/12/22 12:52:29;;;;;;;;;;;6.10;99.90;;;;;;6248185;23;20258;-71
2023/12/22 12:54:58;;;;;;;;;;;6.10;99.90;;;;;;6248914;23;20295;-69
2023/12/22 12:57:25;;;;;;;;;;;6.10;99.90;;;;;;6247604;23;19919;-72
2023/12/22 12:59:52;;;;;;;;;;;6.10;99.90;;;;;;6248948;23;19939;-72
2023/12/22 13:02:19;;;;;;;;;;;6.10;99.90;;;;;;6247543;23;19923;-70
2023/12/22 13:04:47;;;;;;;;;;;6.10;99.90;;;;;;6247481;23;19919;-70
2023/12/22 13:07:14;;;;;;;;;;;6.20;99.90;;;;;;6247627;23;20294;-71
2023/12/22 13:09:42;;;;;;;;;;;6.20;99.90;;;;;;6247825;23;19924;-69
2023/12/22 13:12:10;;;;;;;;;;;6.20;99.90;;;;;;6247338;23;19965;-70
2023/12/22 13:14:37;;;;;;;;;;;6.20;99.90;;;;;;6247174;23;19947;-70
2023/12/22 13:17:04;;;;;;;;;;;6.20;99.90;;;;;;6247344;23;19947;-70
2023/12/22 13:19:31;;;;;;;;;;;6.20;99.90;;;;;;6248663;23;19995;-70
2023/12/22 13:22:00;;;;;;;;;;;5.80;99.90;;;;;;6249877;23;19920;-68
2023/12/22 13:24:27;;;;;;;;;;;6.30;99.90;;;;;;6248457;23;19920;-69
2023/12/22 13:27:01;;;;;;;;;;;6.30;99.90;;;;;;6249496;23;19950;-70
2023/12/22 13:29:28;;;;;;;;;;;6.30;99.90;;;;;;6249464;23;19973;-69
2023/12/22 13:31:57;;;;;;;;;;;6.30;99.90;;;;;;6249167;23;19946;-69
2023/12/22 13:34:24;;;;;;;;;;;6.30;99.90;;;;;;6249361;23;19923;-69
2023/12/22 13:36:51;;;;;;;;;;;6.40;99.90;;;;;;6249293;23;20227;-68
2023/12/22 13:39:19;;;;;;;;;;;6.30;99.90;;;;;;6248545;23;19927;-68
2023/12/22 13:41:46;;;;;;;;;;;6.30;99.90;;;;;;6248715;23;19955;-69
2023/12/22 13:44:14;;;;;;;;;;;6.50;99.90;;;;;;6248977;23;20310;-69
2023/12/22 13:46:42;;;;;;;;;;;6.40;99.90;;;;;;6248782;23;19920;-69
2023/12/22 13:49:09;;;;;;;;;;;6.40;99.90;;;;;;6249154;23;19924;-69
2023/12/22 13:51:39;;;;;;;;;;;6.50;99.90;;;;;;6249417;23;19927;-69
2023/12/22 13:54:06;;;;;;;;;;;6.40;99.90;;;;;;6250033;23;19934;-69
2023/12/22 13:56:36;;;;;;;;;;;6.40;99.90;;;;;;6249194;23;19919;-69
2023/12/22 13:59:03;;;;;;;;;;;6.40;99.90;;;;;;6248564;23;19920;-69
2023/12/22 14:01:30;;;;;;;;;;;6.40;99.90;;;;;;6247693;23;20347;-70
2023/12/22 14:03:57;;;;;;;;;;;6.40;99.90;;;;;;6248585;23;19920;-70
2023/12/22 14:06:24;;;;;;;;;;;6.40;99.90;;;;;;6248654;23;19919;-70
2023/12/22 14:08:50;;;;;;;;;;;6.40;99.90;;;;;;6247541;23;20260;-70
2023/12/22 14:11:17;;;;;;;;;;;6.30;99.90;;;;;;6247801;23;19920;-70
2023/12/22 14:13:45;;;;;;;;;;;6.40;99.90;;;;;;6248121;23;19927;-69
2023/12/22 14:16:15;;;;;;;;;;;6.40;99.90;;;;;;6248063;23;19920;-69
2023/12/22 14:18:42;;;;;;;;;;;6.40;99.90;;;;;;6247904;23;19920;-69
2023/12/22 14:21:08;;;;;;;;;;;6.40;99.90;;;;;;6248199;23;19920;-70
2023/12/22 14:23:35;;;;;;;;;;;6.40;99.90;;;;;;6248226;23;19927;-69
2023/12/22 14:26:01;;;;;;;;;;;6.30;99.90;;;;;;6247866;23;19919;-69
2023/12/22 14:28:28;;;;;;;;;;;6.40;99.90;;;;;;6247904;23;19920;-69
2023/12/22 14:30:56;;;;;;;;;;;6.40;99.90;;;;;;6247579;23;19920;-70
2023/12/22 14:33:23;;;;;;;;;;;6.30;99.90;;;;;;6247825;23;19920;-69
2023/12/22 14:35:49;;;;;;;;;;;6.30;99.90;;;;;;6247972;23;19919;-69
2023/12/22 14:38:16;;;;;;;;;;;6.40;99.90;;;;;;6248024;23;19919;-69
2023/12/22 14:40:42;;;;;;;;;;;6.30;99.90;;;;;;6247869;23;19923;-69
2023/12/22 14:43:09;;;;;;;;;;;6.30;99.90;;;;;;6247724;23;20002;-69
2023/12/22 14:45:37;;;;;;;;;;;6.30;99.90;;;;;;6247600;23;19928;-69
2023/12/22 14:48:06;;;;;;;;;;;6.30;99.90;;;;;;6246905;23;19923;-69
2023/12/22 14:50:33;;;;;;;;;;;6.40;99.90;;;;;;6247382;23;19947;-70
2023/12/22 14:52:59;;;;;;;;;;;6.30;99.90;;;;;;6247448;23;19920;-70
2023/12/22 14:55:26;;;;;;;;;;;6.30;99.90;;;;;;6247555;23;19919;-70
2023/12/22 14:57:52;;;;;;;;;;;6.30;99.90;;;;;;6247310;23;20003;-70
2023/12/22 15:00:19;;;;;;;;;;;6.30;99.90;;;;;;6247303;23;19919;-70
2023/12/22 15:02:46;;;;;;;;;;;6.30;99.90;;;;;;6247278;23;19950;-70
2023/12/22 15:05:14;;;;;;;;;;;6.30;99.90;;;;;;6247531;23;19920;-69
2023/12/22 15:07:40;;;;;;;;;;;6.30;99.90;;;;;;6247337;23;19924;-69
2023/12/22 15:10:09;;;;;;;;;;;6.30;99.90;;;;;;6247240;23;19924;-69
2023/12/22 15:12:37;;;;;;;;;;;6.30;99.90;;;;;;6246724;23;20247;-69
2023/12/22 15:15:04;;;;;;;;;;;6.30;99.90;;;;;;6247003;23;20251;-69
2023/12/22 15:17:31;;;;;;;;;;;6.30;99.90;;;;;;6246759;23;20351;-69
2023/12/22 15:19:57;;;;;;;;;;;6.30;99.90;;;;;;6247277;23;19919;-70
2023/12/22 15:22:25;;;;;;;;;;;6.30;99.90;;;;;;6247241;23;19919;-70
2023/12/22 15:24:52;;;;;;;;;;;6.20;99.90;;;;;;6247439;23;19920;-69
2023/12/22 15:27:18;;;;;;;;;;;6.20;99.90;;;;;;6247181;23;19995;-69
2023/12/22 15:29:45;;;;;;;;;;;6.20;99.90;;;;;;6247506;23;19927;-70
2023/12/22 15:32:12;;;;;;;;;;;6.20;99.90;;;;;;6247592;23;19919;-70
2023/12/22 15:34:40;;;;;;;;;;;6.10;99.90;;;;;;6248403;23;19927;-71
2023/12/22 15:37:06;;;;;;;;;;;6.10;99.90;;;;;;6247180;23;20306;-71
2023/12/22 15:39:34;;;;;;;;;;;6.10;99.90;;;;;;6247225;23;20247;-71
2023/12/22 15:42:01;;;;;;;;;;;6.10;99.90;;;;;;6246577;23;20347;-69
2023/12/22 15:44:29;;;;;;;;;;;6.10;99.90;;;;;;6247808;23;19924;-70
2023/12/22 15:46:55;;;;;;;;;;;6.10;99.90;;;;;;6247748;23;19942;-70
2023/12/22 15:49:22;;;;;;;;;;;6.10;99.90;;;;;;6247220;23;19927;-69
2023/12/22 15:51:47;;;;;;;;;;;6.10;99.90;;;;;;6247035;23;19919;-70
2023/12/22 15:54:16;;;;;;;;;;;6.10;99.90;;;;;;6248128;23;19916;-69
2023/12/22 15:56:43;;;;;;;;;;;6.10;99.90;;;;;;6247575;23;20016;-69
2023/12/22 15:59:11;;;;;;;;;;;6.10;99.90;;;;;;6246903;23;19923;-69
2023/12/22 16:01:42;;;;;;;;;;;6.10;99.90;;;;;;6246880;23;19969;-74
2023/12/22 16:04:09;;;;;;;;;;;6.10;99.90;;;;;;6247065;23;19920;-75
2023/12/22 16:06:35;;;;;;;;;;;6.20;99.90;;;;;;6247059;23;19919;-75
2023/12/22 16:09:02;;;;;;;;;;;6.20;99.90;;;;;;6247000;23;19920;-74
2023/12/22 16:11:30;;;;;;;;;;;6.30;99.90;;;;;;6246733;23;20010;-70
2023/12/22 16:13:58;;;;;;;;;;;6.30;99.90;;;;;;6246925;23;19920;-70
2023/12/22 16:16:24;;;;;;;;;;;6.30;99.90;;;;;;6246364;23;20251;-70
2023/12/22 16:18:50;;;;;;;;;;;6.30;99.90;;;;;;6246286;23;20351;-70
2023/12/22 16:21:16;;;;;;;;;;;6.30;99.90;;;;;;6246778;23;19922;-70
2023/12/22 16:23:43;;;;;;;;;;;6.30;99.90;;;;;;6246429;23;20339;-69
2023/12/22 16:26:10;;;;;;;;;;;6.30;99.90;;;;;;6246294;23;20262;-69
2023/12/22 16:28:36;;;;;;;;;;;6.20;99.90;;;;;;6246967;23;19927;-70
2023/12/22 16:31:04;;;;;;;;;;;6.20;99.90;;;;;;6246201;23;20258;-70
2023/12/22 16:33:31;;;;;;;;;;;6.20;99.90;;;;;;6246316;23;20228;-70
2023/12/22 16:35:57;;;;;;;;;;;6.20;99.90;;;;;;6246482;23;20251;-70
2023/12/22 16:38:24;;;;;;;;;;;6.30;99.90;;;;;;6246714;23;19995;-70
2023/12/22 16:40:51;;;;;;;;;;;6.20;99.90;;;;;;6246352;23;20373;-70
2023/12/22 16:43:17;;;;;;;;;;;6.10;99.90;;;;;;6246320;23;19927;-70
2023/12/22 16:45:44;;;;;;;;;;;6.10;99.90;;;;;;6246474;23;19920;-70
2023/12/22 16:48:12;;;;;;;;;;;6.20;99.90;;;;;;6247086;23;19920;-68
2023/12/22 16:50:38;;;;;;;;;;;6.20;99.90;;;;;;6246482;23;19919;-70
2023/12/22 16:53:05;;;;;;;;;;;6.20;99.90;;;;;;6246670;23;20335;-69
2023/12/22 16:55:31;;;;;;;;;;;6.20;99.90;;;;;;6248375;23;19923;-70
2023/12/22 16:57:58;;;;;;;;;;;6.20;99.90;;;;;;6248444;23;19927;-69
2023/12/22 17:00:25;;;;;;;;;;;6.20;99.90;;;;;;6248734;23;19919;-69
2023/12/22 17:02:52;;;;;;;;;;;6.20;99.90;;;;;;6248119;23;19923;-69
2023/12/22 17:05:20;;;;;;;;;;;6.20;99.90;;;;;;6248323;23;19927;-71
2023/12/22 17:07:47;;;;;;;;;;;6.20;99.90;;;;;;6248435;23;19970;-71
2023/12/22 17:10:13;;;;;;;;;;;6.20;99.90;;;;;;6247916;23;20247;-71
2023/12/22 17:12:40;;;;;;;;;;;6.20;99.90;;;;;;6247692;23;20319;-70
2023/12/22 17:15:07;;;;;;;;;;;6.20;99.90;;;;;;6248822;23;19973;-70
2023/12/22 17:17:34;;;;;;;;;;;6.20;99.90;;;;;;6248217;23;19927;-71
2023/12/22 17:20:00;;;;;;;;;;;6.20;99.90;;;;;;6248536;23;19966;-69
2023/12/22 17:22:28;;;;;;;;;;;6.10;99.90;;;;;;6248561;23;19926;-70
2023/12/22 17:24:55;;;;;;;;;;;6.10;99.90;;;;;;6248586;23;19920;-71
2023/12/22 17:27:21;;;;;;;;;;;6.10;99.90;;;;;;6248247;23;19927;-71
2023/12/22 17:29:48;;;;;;;;;;;6.10;99.90;;;;;;6248373;23;19920;-69
2023/12/22 17:32:14;;;;;;;;;;;6.10;99.90;;;;;;6249164;23;19919;-70
2023/12/22 17:34:41;;;;;;;;;;;6.10;99.90;;;;;;6246505;22;19926;-75
2023/12/22 17:37:07;;;;;;;;;;;7.80;99.90;;;;;;6247742;23;20373;-75
2023/12/22 17:39:36;;;;;;;;;;;6.00;99.90;;;;;;6248073;23;19930;-75
2023/12/22 17:42:02;;;;;;;;;;;6.10;99.90;;;;;;6248361;23;19920;-75
2023/12/22 17:44:29;;;;;;;;;;;6.10;99.90;;;;;;6249352;23;19919;-75
2023/12/22 17:46:56;;;;;;;;;;;6.10;99.90;;;;;;6250398;23;19920;-76
2023/12/22 17:49:23;;;;;;;;;;;6.10;99.90;;;;;;6250116;23;20255;-74
2023/12/22 17:51:49;;;;;;;;;;;6.10;99.90;;;;;;6250269;23;20239;-75
2023/12/22 17:54:16;;;;;;;;;;;6.10;99.90;;;;;;6249829;23;20342;-74
2023/12/22 17:56:44;;;;;;;;;;;6.10;99.90;;;;;;6250206;23;19926;-76
2023/12/22 17:59:10;;;;;;;;;;;6.10;99.90;;;;;;6250686;23;19949;-75
2023/12/22 18:01:40;;;;;;;;;;;6.10;99.90;;;;;;6251118;23;19931;-75
2023/12/22 18:04:07;;;;;;;;;;;6.10;99.90;;;;;;6251743;23;19927;-75
2023/12/22 18:06:33;;;;;;;;;;;6.10;99.90;;;;;;6250283;23;19927;-75
2023/12/22 18:09:01;;;;;;;;;;;6.10;99.90;;;;;;6252320;23;19920;-74
2023/12/22 18:11:28;;;;;;;;;;;6.10;99.90;;;;;;6251380;23;19970;-74
2023/12/22 18:13:56;;;;;;;;;;;6.10;99.90;;;;;;6250025;23;19950;-73
2023/12/22 18:16:22;;;;;;;;;;;6.10;99.90;;;;;;6250980;23;20422;-75
2023/12/22 18:18:49;;;;;;;;;;;6.10;99.90;;;;;;6250800;23;19919;-76
2023/12/22 18:21:15;;;;;;;;;;;6.10;99.90;;;;;;6250935;23;20300;-75
2023/12/22 18:23:42;;;;;;;;;;;6.00;99.90;;;;;;6252305;23;20385;-75
2023/12/22 18:26:10;;;;;;;;;;;6.00;99.90;;;;;;6251288;23;20254;-76
2023/12/22 18:28:37;;;;;;;;;;;6.20;99.90;;;;;;6254893;23;19919;-75
2023/12/22 18:31:05;;;;;;;;;;;6.00;99.90;;;;;;6253297;23;19919;-75
2023/12/22 18:33:32;;;;;;;;;;;6.00;99.90;;;;;;6251383;23;20010;-75
2023/12/22 18:36:00;;;;;;;;;;;6.00;99.90;;;;;;6251707;23;19957;-76
2023/12/22 18:38:27;;;;;;;;;;;6.00;99.90;;;;;;6252248;23;19967;-76
2023/12/22 18:40:54;;;;;;;;;;;6.00;99.90;;;;;;6252825;23;19927;-78
2023/12/22 18:43:20;;;;;;;;;;;6.00;99.90;;;;;;6251411;23;19994;-76
2023/12/22 18:45:47;;;;;;;;;;;6.20;99.90;;;;;;6249943;23;20361;-77
2023/12/22 18:48:15;;;;;;;;;;;6.00;99.90;;;;;;6250033;23;19923;-77
2023/12/22 18:50:42;;;;;;;;;;;6.00;99.90;;;;;;6251454;23;19959;-76
2023/12/22 18:53:08;;;;;;;;;;;6.00;99.90;;;;;;6251066;23;19919;-76
2023/12/22 18:55:35;;;;;;;;;;;6.00;99.90;;;;;;6250268;23;19919;-75
2023/12/22 18:58:02;;;;;;;;;;;6.00;99.90;;;;;;6249662;23;20361;-76
2023/12/22 19:00:29;;;;;;;;;;;5.90;99.90;;;;;;6250077;23;19919;-76
2023/12/22 19:02:56;;;;;;;;;;;6.10;99.90;;;;;;6250097;23;19923;-76
2023/12/22 19:05:24;;;;;;;;;;;6.00;99.90;;;;;;6249714;23;19925;-74
2023/12/22 19:07:50;;;;;;;;;;;6.00;99.90;;;;;;6249632;23;19919;-75
2023/12/22 19:10:17;;;;;;;;;;;6.00;99.90;;;;;;6250036;23;19999;-75
2023/12/22 19:12:45;;;;;;;;;;;6.00;99.90;;;;;;6248929;23;19919;-75
2023/12/22 19:15:12;;;;;;;;;;;6.00;99.90;;;;;;6249550;23;19959;-75
2023/12/22 19:17:38;;;;;;;;;;;6.10;99.90;;;;;;6249413;23;19919;-75
2023/12/22 19:20:06;;;;;;;;;;;6.00;99.90;;;;;;6249917;23;19935;-75
2023/12/22 19:22:34;;;;;;;;;;;6.00;99.90;;;;;;6250166;23;19920;-73
2023/12/22 19:25:01;;;;;;;;;;;6.00;99.90;;;;;;6248578;23;20255;-73
2023/12/22 19:27:29;;;;;;;;;;;6.00;99.90;;;;;;6249095;23;19958;-73
2023/12/22 19:29:57;;;;;;;;;;;6.00;99.90;;;;;;6249532;23;20389;-73
2023/12/22 19:32:25;;;;;;;;;;;6.00;99.90;;;;;;6249214;23;21383;-75
2023/12/22 19:34:52;;;;;;;;;;;6.20;99.90;;;;;;6249364;23;20220;-73
2023/12/22 19:37:19;;;;;;;;;;;6.00;99.90;;;;;;6249747;23;19919;-73
2023/12/22 19:39:46;;;;;;;;;;;6.00;99.90;;;;;;6249535;23;19919;-74
2023/12/22 19:42:13;;;;;;;;;;;6.00;99.90;;;;;;6249714;23;19926;-73
2023/12/22 19:44:40;;;;;;;;;;;5.90;99.90;;;;;;6249442;23;19926;-73
2023/12/22 19:47:06;;;;;;;;;;;6.00;99.90;;;;;;6249525;23;19924;-74
2023/12/22 19:49:34;;;;;;;;;;;6.00;99.90;;;;;;6249516;23;19919;-72
2023/12/22 19:52:01;;;;;;;;;;;5.90;99.90;;;;;;6248728;23;19943;-74
2023/12/22 19:54:27;;;;;;;;;;;6.00;99.90;;;;;;6248361;23;19920;-74
2023/12/22 19:56:55;;;;;;;;;;;6.00;99.90;;;;;;6249217;23;19919;-74
2023/12/22 19:59:22;;;;;;;;;;;6.40;99.90;;;;;;6249029;23;19926;-74
2023/12/22 20:01:48;;;;;;;;;;;5.90;99.90;;;;;;6248804;23;20321;-73
2023/12/22 20:04:15;;;;;;;;;;;5.90;99.90;;;;;;6248963;23;20263;-74
2023/12/22 20:06:42;;;;;;;;;;;5.90;99.90;;;;;;6247819;23;19954;-74
2023/12/22 20:09:09;;;;;;;;;;;5.90;99.90;;;;;;6248513;23;19998;-74
2023/12/22 20:11:35;;;;;;;;;;;5.90;99.90;;;;;;6247642;23;19927;-74
2023/12/22 20:14:03;;;;;;;;;;;5.90;99.90;;;;;;6247159;23;19920;-75
2023/12/22 20:16:30;;;;;;;;;;;5.90;99.90;;;;;;6248390;23;19919;-74
2023/12/22 20:18:57;;;;;;;;;;;5.90;99.90;;;;;;6248013;23;19923;-73
2023/12/22 20:21:23;;;;;;;;;;;5.80;99.90;;;;;;6248682;23;19970;-74
2023/12/22 20:23:51;;;;;;;;;;;5.80;99.90;;;;;;6247833;23;19920;-73
2023/12/22 20:26:18;;;;;;;;;;;5.80;99.90;;;;;;6246745;23;19926;-74
2023/12/22 20:28:44;;;;;;;;;;;5.90;99.90;;;;;;6248821;23;19919;-74
2023/12/22 20:31:12;;;;;;;;;;;5.80;99.90;;;;;;6249593;23;19927;-73
2023/12/22 20:33:39;;;;;;;;;;;5.80;99.90;;;;;;6249499;23;19919;-74
2023/12/22 20:36:06;;;;;;;;;;;5.80;99.90;;;;;;6249333;23;19926;-74
2023/12/22 20:38:32;;;;;;;;;;;5.80;99.90;;;;;;6249433;23;19919;-71
2023/12/22 20:40:59;;;;;;;;;;;5.80;99.90;;;;;;6249417;23;19927;-73
2023/12/22 20:43:25;;;;;;;;;;;5.80;99.90;;;;;;6248959;23;19920;-73
2023/12/22 20:45:52;;;;;;;;;;;5.80;99.90;;;;;;6248839;23;19920;-72
2023/12/22 20:48:20;;;;;;;;;;;5.80;99.90;;;;;;6248928;23;19919;-72
2023/12/22 20:50:46;;;;;;;;;;;5.80;99.90;;;;;;6249605;23;19923;-71
2023/12/22 20:53:13;;;;;;;;;;;5.80;99.90;;;;;;6252974;23;19926;-72
2023/12/22 20:55:40;;;;;;;;;;;5.70;99.90;;;;;;6253706;23;19924;-71
2023/12/22 20:58:06;;;;;;;;;;;5.70;99.90;;;;;;6252642;23;19923;-72
2023/12/22 21:00:33;;;;;;;;;;;5.70;99.90;;;;;;6248790;23;20401;-72
2023/12/22 21:03:00;;;;;;;;;;;5.70;99.90;;;;;;6249729;23;20306;-71
2023/12/22 21:05:28;;;;;;;;;;;5.70;99.90;;;;;;6250210;23;20002;-72
2023/12/22 21:07:55;;;;;;;;;;;5.70;99.90;;;;;;6250540;23;19942;-72
2023/12/22 21:10:22;;;;;;;;;;;5.70;99.90;;;;;;6249745;23;19920;-72
2023/12/22 21:12:48;;;;;;;;;;;5.90;99.90;;;;;;6249404;23;20251;-72
2023/12/22 21:15:15;;;;;;;;;;;5.70;99.90;;;;;;6249273;23;19919;-72
2023/12/22 21:17:46;;;;;;;;;;;5.70;99.90;;;;;;6249195;23;19926;-72
2023/12/22 21:20:13;;;;;;;;;;;5.70;99.90;;;;;;6249722;23;19919;-72
2023/12/22 21:22:41;;;;;;;;;;;5.70;99.90;;;;;;6249728;23;19919;-71
2023/12/22 21:25:09;;;;;;;;;;;5.70;99.90;;;;;;6249061;23;19989;-73
2023/12/22 21:27:35;;;;;;;;;;;5.70;99.90;;;;;;6248539;23;19919;-72
2023/12/22 21:30:03;;;;;;;;;;;5.60;99.90;;;;;;6248970;23;19920;-72
2023/12/22 21:32:30;;;;;;;;;;;5.60;99.90;;;;;;6249744;23;19920;-72
2023/12/22 21:34:56;;;;;;;;;;;5.60;99.90;;;;;;6249913;23;19920;-72